Time;durP1;ratioP1;P1;durP2;ratioP2;P2;SDS_P1;SDS_P2;PMS_P1;PMS_P2;Temp;Humidity;BMP_temperature;BMP_pressure;BME280_temperature;BME280_humidity;BME280_pressure;Samples;Min_cycle;Max_cycle;Signal;HPM_P1;HPM_P2
2022/03/29 00:00:18;;;;;;;14.97;8.97;;;;;;;12.21;51.11;100157.09;5039427;28;20488;-81
2022/03/29 00:02:44;;;;;;;10.97;7.90;;;;;;;12.20;50.82;100152.75;5022578;28;20779;-81
2022/03/29 00:05:09;;;;;;;11.87;9.63;;;;;;;12.21;51.34;100153.56;5024082;28;20416;-81
2022/03/29 00:07:35;;;;;;;11.32;8.70;;;;;;;12.20;51.45;100154.63;5048586;28;20443;-81
2022/03/29 00:10:04;;;;;;;14.02;9.75;;;;;;;12.22;51.76;100153.28;5054995;28;20914;-81
2022/03/29 00:12:31;;;;;;;9.73;7.97;;;;;;;12.20;50.85;100157.34;5052085;28;20401;-81
2022/03/29 00:14:56;;;;;;;11.80;8.45;;;;;;;12.19;50.90;100140.22;5055160;28;20752;-81
2022/03/29 00:17:21;;;;;;;10.97;8.10;;;;;;;12.16;51.54;100137.22;5046064;28;20492;-81
2022/03/29 00:19:47;;;;;;;16.37;8.83;;;;;;;12.12;51.74;100130.69;5030363;28;20401;-81
2022/03/29 00:22:13;;;;;;;13.40;9.60;;;;;;;12.06;51.72;100134.44;5021385;28;20418;-80
2022/03/29 00:24:38;;;;;;;10.75;8.32;;;;;;;11.96;51.12;100133.31;5049146;28;20757;-81
2022/03/29 00:27:05;;;;;;;11.35;8.48;;;;;;;11.88;51.00;100135.69;5054362;28;20385;-81
2022/03/29 00:29:31;;;;;;;14.77;8.75;;;;;;;11.78;50.61;100124.78;5033254;28;20503;-81
2022/03/29 00:31:56;;;;;;;14.07;8.87;;;;;;;11.70;50.53;100131.50;5050012;28;20409;-81
2022/03/29 00:34:21;;;;;;;11.60;8.37;;;;;;;11.65;50.70;100123.28;5028191;28;20397;-81
2022/03/29 00:36:46;;;;;;;16.03;8.23;;;;;;;11.65;51.05;100120.56;5042072;28;20411;-81
2022/03/29 00:39:12;;;;;;;9.95;8.73;;;;;;;11.58;51.02;100119.97;5054551;28;20394;-81
2022/03/29 00:41:37;;;;;;;12.53;8.80;;;;;;;11.49;51.71;100121.53;5038594;28;20416;-81
2022/03/29 00:44:05;;;;;;;11.07;9.03;;;;;;;11.46;51.45;100122.84;5040089;28;20828;-81
2022/03/29 00:46:31;;;;;;;10.65;8.57;;;;;;;11.53;52.22;100121.81;5033126;28;20486;-81
2022/03/29 00:48:57;;;;;;;10.15;9.05;;;;;;;11.61;52.13;100114.03;5022584;28;20817;-81
2022/03/29 00:51:23;;;;;;;12.23;9.13;;;;;;;11.61;52.29;100110.50;5054490;28;20381;-81
2022/03/29 00:53:48;;;;;;;13.18;10.10;;;;;;;11.67;52.52;100112.97;5054277;28;20439;-81
2022/03/29 00:56:14;;;;;;;16.88;10.43;;;;;;;11.74;53.14;100104.63;5023674;28;20423;-80
2022/03/29 00:58:39;;;;;;;16.40;10.67;;;;;;;11.75;52.77;100101.69;5053051;28;20885;-82
2022/03/29 01:01:05;;;;;;;15.27;9.85;;;;;;;11.76;52.98;100100.59;5054291;28;20385;-81
2022/03/29 01:03:30;;;;;;;12.07;9.45;;;;;;;11.77;52.86;100101.41;5030091;28;20903;-81
2022/03/29 01:05:56;;;;;;;13.20;10.47;;;;;;;11.76;53.42;100110.63;5054102;28;20394;-81
2022/03/29 01:08:24;;;;;;;13.80;10.20;;;;;;;11.68;53.12;100103.78;5020219;28;20467;-81
2022/03/29 01:10:50;;;;;;;13.52;9.88;;;;;;;11.59;53.52;100099.88;5032916;28;20892;-81
2022/03/29 01:13:15;;;;;;;17.08;10.27;;;;;;;11.63;53.62;100095.56;5016991;28;20451;-81
2022/03/29 01:15:41;;;;;;;12.50;9.80;;;;;;;11.67;53.94;100090.44;5053618;28;20398;-81
2022/03/29 01:18:07;;;;;;;14.47;10.77;;;;;;;11.72;53.18;100085.88;5007868;28;20463;-81
2022/03/29 01:20:33;;;;;;;11.65;9.50;;;;;;;11.75;53.30;100074.53;5035999;28;20456;-81
2022/03/29 01:23:00;;;;;;;12.20;9.95;;;;;;;11.74;53.55;100080.22;5053819;28;20398;-81
2022/03/29 01:25:37;;;;;;;16.03;10.13;;;;;;;11.73;53.89;100076.69;5017275;28;20590;-81
2022/03/29 01:28:03;;;;;;;17.00;9.95;;;;;;;11.70;53.59;100081.78;5050292;28;20416;-80
2022/03/29 01:30:30;;;;;;;16.90;9.35;;;;;;;11.64;53.47;100077.41;5048745;28;20394;-81
2022/03/29 01:32:56;;;;;;;13.18;9.25;;;;;;;11.45;53.87;100079.72;5021290;28;21011;-81
2022/03/29 01:35:23;;;;;;;13.57;9.33;;;;;;;11.36;54.66;100073.13;5029013;28;20412;-80
2022/03/29 01:37:50;;;;;;;11.20;9.32;;;;;;;11.36;54.90;100075.84;5049340;28;20741;-81
2022/03/29 01:40:18;;;;;;;12.85;9.48;;;;;;;11.36;54.66;100075.84;5053815;28;20860;-81
2022/03/29 01:42:58;;;;;;;11.68;9.43;;;;;;;11.32;54.59;100067.41;5053501;28;20390;-81
2022/03/29 01:45:26;;;;;;;12.68;9.57;;;;;;;11.28;54.47;100069.00;5041885;28;20458;-81
2022/03/29 01:47:52;;;;;;;13.30;9.75;;;;;;;11.25;54.52;100068.69;5052454;28;20420;-80
2022/03/29 01:50:17;;;;;;;12.13;9.50;;;;;;;11.23;54.65;100065.44;5053399;28;20872;-81
2022/03/29 01:52:45;;;;;;;12.13;9.63;;;;;;;11.19;54.50;100057.00;5042713;28;20863;-81
2022/03/29 01:55:12;;;;;;;13.13;9.30;;;;;;;11.17;54.56;100058.31;5040019;28;20414;-81
2022/03/29 01:57:38;;;;;;;14.20;9.82;;;;;;;11.13;54.66;100051.78;5034126;28;20399;-81
2022/03/29 02:02:50;;;;;;;12.98;9.70;;;;;;;11.03;55.37;100046.25;5025973;28;20392;-81
2022/03/29 02:05:15;;;;;;;12.67;9.70;;;;;;;11.02;54.75;100044.63;5040427;28;20503;-81
2022/03/29 02:07:40;;;;;;;13.75;9.77;;;;;;;11.01;54.74;100046.50;5053061;28;20409;-81
2022/03/29 02:10:06;;;;;;;15.87;10.03;;;;;;;10.99;55.29;100048.66;5052934;28;20433;-81
2022/03/29 02:12:33;;;;;;;18.50;9.90;;;;;;;10.98;55.46;100047.03;5052943;28;20393;-81
2022/03/29 02:14:58;;;;;;;14.65;9.48;;;;;;;11.00;55.70;100044.06;5041107;28;20407;-81
2022/03/29 02:17:23;;;;;;;14.00;9.40;;;;;;;10.97;55.71;100047.28;5052562;28;20884;-81
2022/03/29 02:19:49;;;;;;;16.30;9.53;;;;;;;10.93;55.57;100044.28;5052691;28;20385;-81
2022/03/29 02:22:14;;;;;;;12.97;9.50;;;;;;;10.87;55.51;100045.28;5026347;28;20419;-80
2022/03/29 02:24:39;;;;;;;13.68;9.65;;;;;;;10.84;55.45;100037.66;5027524;28;20458;-81
2022/03/29 02:27:05;;;;;;;14.67;9.40;;;;;;;10.82;55.73;100035.22;5050764;28;20389;-81
2022/03/29 02:29:30;;;;;;;14.87;9.37;;;;;;;10.81;55.52;100040.91;5051918;28;20382;-81
2022/03/29 02:31:55;;;;;;;13.50;9.70;;;;;;;10.77;55.45;100037.88;5045787;28;20824;-81
2022/03/29 02:34:21;;;;;;;14.13;9.27;;;;;;;10.75;55.75;100036.50;5038862;28;20411;-81
2022/03/29 02:36:46;;;;;;;13.30;9.13;;;;;;;10.71;55.40;100038.09;5031121;28;20511;-81
2022/03/29 02:39:12;;;;;;;15.43;9.43;;;;;;;10.67;55.79;100034.28;5034508;28;20390;-81
2022/03/29 02:41:37;;;;;;;17.70;10.25;;;;;;;10.66;56.13;100036.16;5023319;28;20428;-81
2022/03/29 02:44:03;;;;;;;16.13;10.37;;;;;;;10.65;55.96;100026.38;5037913;28;20481;-81
2022/03/29 02:46:29;;;;;;;12.38;8.63;;;;;;;10.66;55.65;100033.44;5018637;28;20715;-81
2022/03/29 02:48:54;;;;;;;13.05;9.40;;;;;;;10.68;55.90;100025.03;5052322;28;20416;-81
2022/03/29 02:51:19;;;;;;;13.47;9.47;;;;;;;10.66;55.85;100024.50;5047116;28;20434;-81
2022/03/29 02:53:44;;;;;;;14.97;8.93;;;;;;;10.50;55.30;100026.25;5034311;28;20423;-81
2022/03/29 02:56:10;;;;;;;19.97;9.93;;;;;;;10.29;55.92;100022.47;5047185;28;20398;-80
2022/03/29 02:58:35;;;;;;;10.65;9.15;;;;;;;10.25;56.55;100015.91;5045776;28;20413;-81
2022/03/29 03:01:00;;;;;;;14.07;8.80;;;;;;;10.27;56.72;100015.69;5051963;28;20386;-81
2022/03/29 03:03:26;;;;;;;14.80;9.00;;;;;;;10.27;57.61;100015.69;5040703;28;20920;-81
2022/03/29 03:05:51;;;;;;;13.93;9.73;;;;;;;10.19;56.78;100016.13;5033673;28;20400;-81
2022/03/29 03:08:17;;;;;;;18.35;9.68;;;;;;;10.23;56.93;100011.84;5022855;28;20429;-81
2022/03/29 03:10:42;;;;;;;16.47;9.93;;;;;;;10.26;57.04;100003.19;5050323;28;20393;-80
2022/03/29 03:13:09;;;;;;;18.43;10.10;;;;;;;10.30;56.87;100004.34;5024385;28;20406;-80
2022/03/29 03:15:34;;;;;;;14.90;9.48;;;;;;;10.33;57.14;100004.66;5034522;28;20403;-81
2022/03/29 03:17:59;;;;;;;13.03;9.60;;;;;;;10.35;56.64;99998.97;5037285;28;20517;-81
2022/03/29 03:20:26;;;;;;;15.32;9.48;;;;;;;10.35;57.04;100001.66;5051616;28;20394;-80
2022/03/29 03:22:51;;;;;;;16.87;9.50;;;;;;;10.34;56.67;100006.25;5039192;28;20408;-81
2022/03/29 03:25:17;;;;;;;12.40;9.60;;;;;;;10.33;56.81;100001.13;5051167;28;20405;-81
2022/03/29 03:27:43;;;;;;;11.55;10.18;;;;;;;10.31;56.81;100003.25;5045542;28;20417;-81
2022/03/29 03:30:13;;;;;;;14.07;9.85;;;;;;;10.30;56.95;99994.31;5043208;28;20419;-81
2022/03/29 03:32:40;;;;;;;13.93;9.67;;;;;;;10.30;56.88;99991.63;5021876;28;20841;-80
2022/03/29 03:35:06;;;;;;;12.65;8.90;;;;;;;10.29;56.68;99991.84;5036774;28;20836;-80
2022/03/29 03:37:31;;;;;;;13.25;9.27;;;;;;;10.30;56.57;99991.63;5011565;28;20419;-81
2022/03/29 03:39:56;;;;;;;15.68;10.50;;;;;;;10.30;56.83;99983.50;5028396;28;20396;-81
2022/03/29 03:42:22;;;;;;;16.30;9.93;;;;;;;10.34;56.73;99986.50;5048821;28;20394;-81
2022/03/29 03:44:47;;;;;;;12.07;9.20;;;;;;;10.35;56.25;99983.53;5034301;28;20410;-81
2022/03/29 03:47:13;;;;;;;13.80;9.80;;;;;;;10.27;56.94;99989.38;5016297;28;20407;-81
2022/03/29 03:49:38;;;;;;;17.87;9.83;;;;;;;10.29;56.21;99983.72;5035983;28;20938;-81
2022/03/29 03:52:05;;;;;;;12.73;9.52;;;;;;;10.29;56.73;99983.72;5033886;28;20399;-80
2022/03/29 03:54:37;;;;;;;14.98;9.70;;;;;;;10.25;57.22;99979.91;5021844;28;20474;-81
2022/03/29 03:57:04;;;;;;;16.35;9.80;;;;;;;10.16;56.40;99982.25;5021655;28;20908;-80
2022/03/29 03:59:30;;;;;;;15.10;9.35;;;;;;;9.98;56.95;99981.72;5049345;28;20481;-81
2022/03/29 04:01:55;;;;;;;18.80;10.50;;;;;;;9.88;56.56;99977.81;5051127;28;20484;-81
2022/03/29 04:04:21;;;;;;;15.53;10.93;;;;;;;9.88;57.17;99983.22;5045677;28;20802;-81
2022/03/29 04:06:46;;;;;;;19.33;12.53;;;;;;;9.82;57.46;99972.59;5032745;28;20416;-81
2022/03/29 04:09:11;;;;;;;18.17;11.13;;;;;;;9.82;57.80;99968.00;5044280;28;20422;-80
2022/03/29 04:11:36;;;;;;;13.47;9.90;;;;;;;9.87;58.01;99967.25;5026617;28;20398;-81
2022/03/29 04:14:02;;;;;;;12.93;9.83;;;;;;;9.89;57.86;99971.34;5014520;28;20505;-80
2022/03/29 04:16:28;;;;;;;21.85;11.25;;;;;;;9.84;57.14;99979.41;5007104;28;20453;-80
2022/03/29 04:18:53;;;;;;;12.18;9.55;;;;;;;9.76;57.71;99977.13;5021210;28;20490;-80
2022/03/29 04:21:19;;;;;;;22.93;10.60;;;;;;;9.77;58.00;99975.25;5019473;28;20394;-81
2022/03/29 04:23:44;;;;;;;19.60;10.80;;;;;;;9.80;58.24;99969.31;5032964;28;20904;-80
2022/03/29 04:26:10;;;;;;;13.13;9.83;;;;;;;9.82;58.72;99957.16;5028647;28;20412;-80
2022/03/29 04:28:35;;;;;;;13.73;9.93;;;;;;;9.83;58.50;99949.88;4998531;28;20427;-81
2022/03/29 04:31:01;;;;;;;15.98;10.25;;;;;;;9.85;58.66;99942.31;5028146;28;20415;-81
2022/03/29 04:33:27;;;;;;;13.17;10.43;;;;;;;9.86;58.31;99950.19;5027731;28;20411;-81
2022/03/29 04:35:52;;;;;;;16.02;10.10;;;;;;;9.88;58.44;99947.22;5042814;28;20904;-81
2022/03/29 04:38:18;;;;;;;15.07;10.90;;;;;;;9.87;58.83;99938.31;5017924;28;20399;-81
2022/03/29 04:40:43;;;;;;;14.90;11.07;;;;;;;9.87;58.83;99942.88;5046286;28;20444;-81
2022/03/29 04:43:09;;;;;;;14.35;10.48;;;;;;;9.88;58.31;99945.34;5018596;28;20466;-82
2022/03/29 04:45:34;;;;;;;16.43;10.83;;;;;;;9.88;57.75;99953.44;5017342;28;20424;-81
2022/03/29 04:48:00;;;;;;;18.83;11.00;;;;;;;9.88;58.11;99945.34;5022589;28;20902;-81
2022/03/29 04:50:26;;;;;;;19.55;10.65;;;;;;;9.88;58.56;99953.44;5018058;28;20424;-82
2022/03/29 04:52:51;;;;;;;15.73;10.50;;;;;;;9.87;58.32;99951.84;5020626;28;20395;-81
2022/03/29 04:55:18;;;;;;;16.50;10.30;;;;;;;9.88;58.90;99942.63;5041500;28;20401;-81
2022/03/29 04:57:47;;;;;;;16.45;11.02;;;;;;;9.85;59.24;99936.91;5030214;28;20433;-81
2022/03/29 05:00:14;;;;;;;15.17;10.27;;;;;;;9.84;59.57;99928.00;5036043;28;20403;-81
2022/03/29 05:02:43;;;;;;;14.50;10.93;;;;;;;9.85;59.46;99934.19;5021785;28;20792;-80
2022/03/29 05:05:10;;;;;;;16.73;10.90;;;;;;;9.85;59.76;99932.31;5028812;28;20403;-81
2022/03/29 05:07:35;;;;;;;17.02;10.25;;;;;;;9.81;59.92;99936.56;5028482;28;20401;-79
2022/03/29 05:10:02;;;;;;;18.55;10.48;;;;;;;9.78;59.88;99939.00;5032646;28;20414;-79
2022/03/29 05:12:27;;;;;;;15.97;10.47;;;;;;;9.77;59.66;99938.19;5019640;28;20397;-82
2022/03/29 05:14:53;;;;;;;16.47;10.73;;;;;;;9.80;59.05;99942.25;5033962;28;20397;-81
2022/03/29 05:17:18;;;;;;;17.33;11.40;;;;;;;9.83;59.16;99934.47;5044393;28;20411;-79
2022/03/29 05:19:43;;;;;;;17.30;11.63;;;;;;;9.84;59.21;99943.41;5038881;28;20457;-80
2022/03/29 05:22:09;;;;;;;18.93;11.20;;;;;;;9.86;58.86;99930.41;5041359;28;20415;-78
2022/03/29 05:24:34;;;;;;;18.97;11.83;;;;;;;9.89;59.60;99938.84;5029255;28;20772;-79
2022/03/29 05:26:59;;;;;;;16.90;11.07;;;;;;;9.88;59.62;99937.22;5026993;28;20413;-79
2022/03/29 05:29:30;;;;;;;15.50;11.97;;;;;;;9.86;59.86;99939.38;5026999;28;20401;-80
2022/03/29 05:31:57;;;;;;;15.98;11.50;;;;;;;9.86;60.96;99936.66;5026773;28;20409;-80
2022/03/29 05:34:22;;;;;;;16.10;13.25;;;;;;;9.88;61.22;99933.69;5010900;28;20412;-82
2022/03/29 05:36:48;;;;;;;19.52;12.15;;;;;;;9.89;60.61;99938.03;5020937;28;20884;-79
2022/03/29 05:39:13;;;;;;;15.48;12.68;;;;;;;9.93;60.01;99943.75;5041759;28;20880;-80
2022/03/29 05:41:39;;;;;;;18.70;13.53;;;;;;;10.00;59.95;99947.91;4991138;28;20408;-80
2022/03/29 05:44:05;;;;;;;17.90;12.43;;;;;;;10.07;59.60;99953.97;5025529;28;20433;-80
2022/03/29 05:49:14;;;;;;;17.15;11.02;;;;;;;10.18;59.13;99949.47;5028538;28;20782;-80
2022/03/29 05:51:40;;;;;;;16.33;12.33;;;;;;;10.20;59.38;99945.47;5036013;28;20425;-80
2022/03/29 05:54:06;;;;;;;19.67;11.87;;;;;;;10.23;59.72;99946.84;5037675;28;20458;-80
2022/03/29 05:56:31;;;;;;;21.60;11.55;;;;;;;10.26;59.64;99946.34;5025025;28;20501;-80
2022/03/29 05:58:56;;;;;;;24.85;11.82;;;;;;;10.29;58.84;99946.63;5026662;28;20555;-80
2022/03/29 06:01:22;;;;;;;22.17;12.13;;;;;;;10.35;58.99;99952.91;5016239;28;20448;-80
2022/03/29 06:03:48;;;;;;;24.25;11.60;;;;;;;10.40;58.69;99958.41;5016519;28;20418;-78
2022/03/29 06:06:14;;;;;;;28.33;11.73;;;;;;;10.44;58.85;99951.38;5016084;28;20432;-80
2022/03/29 06:08:40;;;;;;;17.50;12.07;;;;;;;10.48;58.53;99952.50;5034773;28;20778;-80
2022/03/29 06:11:07;;;;;;;17.50;11.97;;;;;;;10.48;58.86;99948.97;5037690;28;20573;-80
2022/03/29 06:13:32;;;;;;;16.60;12.55;;;;;;;10.27;59.21;99947.97;5027476;28;20405;-80
2022/03/29 06:15:58;;;;;;;19.90;13.60;;;;;;;10.02;59.85;99955.78;5031988;28;20407;-79
2022/03/29 06:18:23;;;;;;;22.38;13.90;;;;;;;9.96;60.38;99964.91;5030134;28;20490;-79
2022/03/29 06:20:49;;;;;;;24.47;13.97;;;;;;;10.14;59.50;99951.09;5029139;28;20496;-80
2022/03/29 06:23:14;;;;;;;18.53;14.40;;;;;;;10.44;58.27;99954.09;5022168;28;20508;-81
2022/03/29 06:25:40;;;;;;;21.07;14.60;;;;;;;10.62;58.08;99948.31;5040914;28;20947;-81
2022/03/29 06:28:06;;;;;;;17.13;13.27;;;;;;;10.73;58.34;99943.81;5029531;28;20417;-82
2022/03/29 06:30:31;;;;;;;20.48;12.57;;;;;;;10.85;58.16;99952.56;5016733;28;20407;-81
2022/03/29 06:32:57;;;;;;;16.30;11.57;;;;;;;10.86;58.69;99955.03;5029692;28;20411;-80
2022/03/29 06:35:25;;;;;;;17.25;11.10;;;;;;;10.93;58.95;99957.53;5034531;28;20404;-81
2022/03/29 06:37:51;;;;;;;17.60;10.98;;;;;;;11.01;59.05;99953.50;5040650;28;20417;-81
2022/03/29 06:40:17;;;;;;;19.90;11.68;;;;;;;11.09;58.77;99962.00;5025702;28;20519;-80
2022/03/29 06:42:43;;;;;;;24.15;14.30;;;;;;;11.06;58.23;99958.97;5026774;28;20507;-80
2022/03/29 06:45:09;;;;;;;21.60;15.50;;;;;;;11.12;58.02;99957.94;5033611;28;20444;-78
2022/03/29 06:47:34;;;;;;;20.13;13.95;;;;;;;11.21;58.64;99956.38;5034966;28;20432;-80
2022/03/29 06:50:00;;;;;;;20.53;12.37;;;;;;;11.28;58.22;99951.53;5036946;28;20869;-81
2022/03/29 06:52:27;;;;;;;20.77;12.70;;;;;;;11.29;58.65;99958.59;5037242;28;20468;-80
2022/03/29 06:54:53;;;;;;;19.92;12.77;;;;;;;11.37;58.59;99963.50;5037739;28;20397;-81
2022/03/29 06:57:18;;;;;;;22.85;14.23;;;;;;;11.45;58.43;99953.00;5036350;28;20412;-80
2022/03/29 06:59:44;;;;;;;29.03;13.30;;;;;;;11.53;58.03;99956.28;5021669;28;20415;-80
2022/03/29 07:02:09;;;;;;;24.15;13.60;;;;;;;11.59;57.66;99956.03;5022055;28;20410;-81
2022/03/29 07:04:34;;;;;;;25.13;12.37;;;;;;;11.69;57.77;99952.59;5026274;28;20405;-80
2022/03/29 07:07:00;;;;;;;22.43;12.47;;;;;;;11.69;58.36;99942.53;5024810;28;20998;-80
2022/03/29 07:12:09;;;;;;;20.70;11.85;;;;;;;11.82;57.46;99944.00;5042113;28;20403;-80
2022/03/29 07:14:34;;;;;;;18.50;12.03;;;;;;;11.83;57.21;99943.72;5018206;28;20480;-80
2022/03/29 07:16:59;;;;;;;21.47;14.27;;;;;;;11.94;57.15;99942.69;5033713;28;20443;-81
2022/03/29 07:19:27;;;;;;;22.43;12.97;;;;;;;12.09;56.24;99936.47;5032841;28;20389;-81
2022/03/29 07:21:52;;;;;;;24.65;15.18;;;;;;;12.25;56.58;99943.56;5018245;28;20389;-80
2022/03/29 07:24:18;;;;;;;23.50;12.75;;;;;;;12.34;55.41;99944.69;5040744;28;20463;-81
2022/03/29 07:26:43;;;;;;;26.03;13.43;;;;;;;12.45;55.10;99945.50;5039268;28;20480;-81
2022/03/29 07:29:09;;;;;;;20.50;12.95;;;;;;;12.58;55.31;99942.25;5037348;28;20409;-81
2022/03/29 07:31:34;;;;;;;20.20;12.90;;;;;;;12.55;55.27;99944.69;5031867;28;20465;-81
2022/03/29 07:34:00;;;;;;;19.27;13.47;;;;;;;12.55;54.45;99944.69;5050913;28;20872;-81
2022/03/29 07:36:25;;;;;;;20.73;13.53;;;;;;;12.67;54.28;99953.44;5038111;28;20955;-80
2022/03/29 07:38:50;;;;;;;22.63;13.80;;;;;;;12.83;53.80;99955.88;5039330;28;20870;-81
2022/03/29 07:41:16;;;;;;;19.13;12.80;;;;;;;12.75;53.90;99961.84;5037911;28;20893;-81
2022/03/29 07:43:42;;;;;;;23.47;13.80;;;;;;;12.90;53.78;99952.91;5036110;28;20403;-81
2022/03/29 07:46:07;;;;;;;15.37;13.40;;;;;;;13.09;53.75;99956.72;5030868;28;20404;-80
2022/03/29 07:48:32;;;;;;;22.47;14.20;;;;;;;12.84;54.35;99954.00;5016374;28;21971;-80
2022/03/29 07:50:57;;;;;;;19.23;14.25;;;;;;;12.71;54.69;99954.53;5022871;28;20499;-81
2022/03/29 07:53:25;;;;;;;19.50;13.70;;;;;;;12.71;54.89;99962.69;5037444;28;20405;-80
2022/03/29 07:55:50;;;;;;;20.02;13.73;;;;;;;12.53;55.72;99966.72;5050647;28;20393;-80
2022/03/29 07:58:17;;;;;;;19.40;13.35;;;;;;;12.63;55.68;99958.59;5027969;28;20782;-81
2022/03/29 08:00:43;;;;;;;21.13;12.88;;;;;;;13.08;54.03;99954.22;5019230;28;20424;-80
2022/03/29 08:03:12;;;;;;;19.43;12.43;;;;;;;13.25;53.64;99958.34;5036667;28;20411;-81
2022/03/29 08:05:41;;;;;;;17.02;13.27;;;;;;;13.26;53.23;99954.53;5038320;28;20421;-81
2022/03/29 08:08:07;;;;;;;19.02;11.90;;;;;;;13.44;52.18;99959.38;5032026;28;20417;-81
2022/03/29 08:10:32;;;;;;;20.67;13.90;;;;;;;13.70;51.65;99953.88;5041617;28;20772;-81
2022/03/29 08:13:00;;;;;;;23.50;13.45;;;;;;;13.77;51.46;99952.47;5011848;28;20876;-81
2022/03/29 08:15:25;;;;;;;18.75;14.40;;;;;;;13.86;50.20;99960.91;5050875;28;20397;-82
2022/03/29 08:17:51;;;;;;;20.37;14.33;;;;;;;14.12;49.53;99953.44;5021802;28;20402;-80
2022/03/29 08:20:16;;;;;;;19.03;13.70;;;;;;;14.40;48.49;99953.56;5022286;28;21138;-80
2022/03/29 08:22:44;;;;;;;24.40;14.50;;;;;;;14.61;47.36;99950.72;5022771;28;20467;-80
2022/03/29 08:25:12;;;;;;;18.67;13.55;;;;;;;14.71;47.39;99956.91;5014830;28;20409;-80
2022/03/29 08:27:37;;;;;;;22.40;15.25;;;;;;;14.94;46.61;99949.91;5036870;28;20833;-81
2022/03/29 08:30:03;;;;;;;19.90;13.43;;;;;;;15.06;46.34;99947.63;5030940;28;20935;-81
2022/03/29 08:32:29;;;;;;;26.23;14.10;;;;;;;15.05;46.79;99949.53;5014362;28;20403;-80
2022/03/29 08:34:54;;;;;;;25.53;15.03;;;;;;;14.99;46.36;99944.41;5039952;28;20408;-80
2022/03/29 08:37:20;;;;;;;34.40;16.00;;;;;;;15.03;46.28;99940.81;5027621;28;20418;-80
2022/03/29 08:39:45;;;;;;;24.30;17.05;;;;;;;15.12;45.98;99945.63;5002542;28;20415;-79
2022/03/29 08:42:14;;;;;;;29.90;18.73;;;;;;;15.22;44.39;99940.91;5041123;28;20969;-79
2022/03/29 08:44:40;;;;;;;25.42;17.13;;;;;;;15.49;44.37;99933.03;5046971;28;20390;-80
2022/03/29 08:47:07;;;;;;;25.00;17.23;;;;;;;15.50;45.73;99936.56;5042581;28;20406;-80
2022/03/29 08:49:33;;;;;;;31.65;19.88;;;;;;;15.53;45.28;99934.06;5024693;28;20415;-80
2022/03/29 08:51:59;;;;;;;28.92;20.83;;;;;;;15.59;44.19;99932.09;5030189;28;20417;-80
2022/03/29 08:54:24;;;;;;;32.50;22.25;;;;;;;15.69;44.25;99933.88;5027858;28;20410;-79
2022/03/29 08:56:50;;;;;;;38.30;25.73;;;;;;;15.88;43.52;99927.38;5026645;28;20409;-80
2022/03/29 08:59:15;;;;;;;32.83;23.37;;;;;;;15.95;43.17;99927.00;5039806;28;20416;-80
2022/03/29 09:01:40;;;;;;;33.83;23.10;;;;;;;16.27;42.54;99931.78;5021395;28;20405;-81
2022/03/29 09:04:10;;;;;;;38.80;24.93;;;;;;;16.58;41.82;99925.59;5043822;28;20416;-81
2022/03/29 09:06:51;;;;;;;32.00;24.15;;;;;;;16.64;41.60;99923.59;5016088;28;20405;-81
2022/03/29 09:09:37;;;;;;;34.95;24.45;;;;;;;16.59;41.94;99918.22;5035768;28;20416;-81
2022/03/29 09:12:16;;;;;;;37.10;25.95;;;;;;;16.46;42.36;99917.00;5031323;28;20435;-81
2022/03/29 09:14:59;;;;;;;39.20;25.85;;;;;;;16.35;42.60;99907.31;5041982;28;20405;-80
2022/03/29 09:17:39;;;;;;;34.55;24.10;;;;;;;16.49;42.79;99910.94;5030076;28;20459;-81
2022/03/29 09:20:07;;;;;;;32.53;23.25;;;;;;;16.68;42.01;99900.00;5041636;28;20797;-82
2022/03/29 09:22:39;;;;;;;34.53;24.30;;;;;;;16.98;41.23;99898.69;5005365;28;20874;-79
2022/03/29 09:25:05;;;;;;;35.90;24.27;;;;;;;17.27;40.71;99888.28;5013141;28;20456;-79
2022/03/29 09:27:48;;;;;;;31.60;24.42;;;;;;;17.36;40.89;99891.94;5012898;28;20455;-80
2022/03/29 09:30:14;;;;;;;33.70;25.05;;;;;;;17.29;41.42;99888.78;5011938;28;20444;-81
2022/03/29 09:32:55;;;;;;;33.15;23.92;;;;;;;17.32;41.29;99879.94;5010142;28;20436;-80
2022/03/29 09:35:21;;;;;;;36.75;23.60;;;;;;;17.48;40.58;99875.00;5043050;28;20410;-79
2022/03/29 09:37:46;;;;;;;35.07;24.57;;;;;;;17.58;40.13;99874.84;5013220;28;20942;-83
2022/03/29 09:40:13;;;;;;;35.47;23.73;;;;;;;17.66;40.17;99868.63;5035771;28;20498;-81
2022/03/29 09:42:40;;;;;;;37.40;24.27;;;;;;;17.70;40.39;99869.66;5022319;28;21076;-81
2022/03/29 09:45:07;;;;;;;32.75;23.55;;;;;;;17.77;39.90;99856.34;5014020;28;20490;-80
2022/03/29 09:47:32;;;;;;;31.73;23.02;;;;;;;17.90;39.73;99861.00;5027054;28;20420;-80
2022/03/29 09:50:02;;;;;;;34.57;24.00;;;;;;;18.13;39.69;99848.97;5021762;28;20415;-81
2022/03/29 09:52:30;;;;;;;32.67;24.10;;;;;;;18.39;38.23;99837.38;5022505;28;20418;-80
2022/03/29 09:55:13;;;;;;;34.13;25.03;;;;;;;19.25;36.96;99833.22;5020848;28;20950;-81
2022/03/29 09:57:44;;;;;;;32.75;25.75;;;;;;;20.40;34.39;99821.81;5017377;28;20416;-81
2022/03/29 10:00:36;;;;;;;36.63;25.55;;;;;;;21.45;32.74;99833.88;5036918;28;20862;-80
2022/03/29 10:03:06;;;;;;;35.30;24.35;;;;;;;22.38;31.79;99819.78;5025173;28;20407;-81
2022/03/29 10:05:34;;;;;;;37.42;25.75;;;;;;;22.12;31.66;99831.06;5027078;28;21031;-81
2022/03/29 10:10:52;;;;;;;39.58;26.90;;;;;;;21.53;31.20;99821.19;5022648;28;20766;-81
2022/03/29 10:13:23;;;;;;;37.40;25.48;;;;;;;21.89;31.65;99812.38;5032429;28;20409;-80
2022/03/29 10:15:53;;;;;;;35.55;25.38;;;;;;;22.66;29.87;99812.53;5018009;28;20405;-81
2022/03/29 10:18:21;;;;;;;34.53;25.13;;;;;;;23.64;28.42;99805.22;5037460;28;20946;-81
2022/03/29 10:20:48;;;;;;;32.15;24.88;;;;;;;24.56;27.49;99797.69;5020528;28;20511;-81
2022/03/29 10:23:14;;;;;;;33.25;25.67;;;;;;;24.88;27.00;99803.31;5027064;28;20404;-81
2022/03/29 10:25:41;;;;;;;35.88;24.60;;;;;;;25.50;26.26;99802.53;5032371;28;20413;-81
2022/03/29 10:28:07;;;;;;;44.20;25.35;;;;;;;26.70;25.24;99796.84;5036362;28;20417;-81
2022/03/29 10:30:42;;;;;;;34.58;24.73;;;;;;;27.88;23.10;99794.84;5033789;28;20783;-81
2022/03/29 10:33:41;;;;;;;29.80;23.42;;;;;;;28.32;21.99;99785.50;5019352;28;20459;-82
2022/03/29 10:36:12;;;;;;;31.20;24.23;;;;;;;26.34;24.81;99789.78;4957300;28;20903;-82
2022/03/29 10:38:46;;;;;;;32.03;23.13;;;;;;;24.66;26.46;99780.56;5026566;28;20876;-81
2022/03/29 10:41:26;;;;;;;29.08;22.40;;;;;;;24.27;27.21;99779.47;5011671;28;20431;-81
2022/03/29 10:43:54;;;;;;;31.80;22.88;;;;;;;25.52;25.37;99773.25;5018329;28;20929;-82
2022/03/29 10:46:24;;;;;;;28.25;23.10;;;;;;;25.86;24.76;99779.97;5013532;28;20502;-82
2022/03/29 10:49:25;;;;;;;28.58;21.33;;;;;;;25.46;25.57;99766.34;5040051;28;20496;-81
2022/03/29 10:51:52;;;;;;;29.98;23.02;;;;;;;25.67;24.86;99760.53;5014680;28;20460;-81
2022/03/29 10:54:27;;;;;;;31.40;21.73;;;;;;;25.39;25.52;99766.19;5012223;28;20445;-81
2022/03/29 10:57:00;;;;;;;30.35;22.55;;;;;;;24.78;26.38;99757.50;5038003;28;20413;-81
2022/03/29 10:59:26;;;;;;;26.70;20.67;;;;;;;24.04;27.16;99756.22;5040293;28;20401;-81
2022/03/29 11:02:20;;;;;;;25.60;20.70;;;;;;;23.70;27.45;99751.25;5018345;28;20470;-80
2022/03/29 11:05:07;;;;;;;30.35;20.15;;;;;;;23.78;26.96;99747.53;5016359;28;20443;-81
2022/03/29 11:07:58;;;;;;;24.92;19.02;;;;;;;24.52;25.65;99746.13;5025733;28;20406;-81
2022/03/29 11:10:41;;;;;;;26.60;19.52;;;;;;;25.02;25.58;99739.94;5020227;28;20954;-81
2022/03/29 11:13:37;;;;;;;30.85;20.35;;;;;;;25.64;24.97;99734.31;5031844;28;20401;-81
2022/03/29 11:16:25;;;;;;;27.80;20.55;;;;;;;26.04;23.34;99724.84;5024907;28;20407;-81
2022/03/29 11:18:51;;;;;;;29.02;19.60;;;;;;;26.04;23.99;99720.09;5019447;28;20441;-81
2022/03/29 11:21:32;;;;;;;26.75;20.20;;;;;;;25.94;23.00;99714.31;5044990;28;20405;-81
2022/03/29 11:23:59;;;;;;;22.20;18.05;;;;;;;25.21;23.76;99724.19;5042677;28;20446;-83
2022/03/29 11:26:25;;;;;;;26.08;18.20;;;;;;;23.88;25.35;99710.25;5037733;28;20502;-81
2022/03/29 11:28:54;;;;;;;27.88;18.55;;;;;;;24.22;24.68;99712.47;5043392;28;20421;-85
2022/03/29 11:31:20;;;;;;;26.35;17.27;;;;;;;23.93;25.21;99705.31;5006571;28;20809;-83